createdAt,value
2023-02-16T00:01:59.445Z,23.92
2023-02-16T00:04:29.484Z,26.35
2023-02-16T00:06:58.555Z,25.50
2023-02-16T00:09:29.765Z,26.52
2023-02-16T00:12:25.379Z,24.42
2023-02-16T00:14:54.363Z,25.60
2023-02-16T00:17:24.392Z,26.55
2023-02-16T00:19:53.069Z,26.20
2023-02-16T00:22:21.693Z,26.20
2023-02-16T00:24:54.232Z,26.73
2023-02-16T00:27:22.654Z,25.35
2023-02-16T00:29:50.956Z,28.80
2023-02-16T00:32:19.573Z,27.20
2023-02-16T00:34:49.783Z,26.77
2023-02-16T00:37:18.996Z,25.00
2023-02-16T00:39:48.008Z,24.25
2023-02-16T00:42:21.242Z,24.25
2023-02-16T00:44:52.034Z,26.67
2023-02-16T00:47:23.397Z,24.33
2023-02-16T00:49:55.228Z,25.63
2023-02-16T00:52:32.444Z,24.55
2023-02-16T00:55:01.659Z,23.90
2023-02-16T00:57:34.356Z,23.05
2023-02-16T01:00:06.755Z,24.92
2023-02-16T01:02:35.217Z,25.48
2023-02-16T01:05:05.038Z,24.48
2023-02-16T01:07:51.077Z,22.75
2023-02-16T01:10:37.451Z,23.75
2023-02-16T01:13:06.315Z,22.20
2023-02-16T01:15:34.858Z,23.90
2023-02-16T01:18:03.449Z,23.15
2023-02-16T01:20:35.387Z,23.70
2023-02-16T01:23:03.999Z,21.08
2023-02-16T01:25:32.439Z,21.73
2023-02-16T01:28:01.161Z,23.55
2023-02-16T01:30:29.867Z,22.05
2023-02-16T01:33:00.635Z,21.85
2023-02-16T01:35:34.182Z,22.45
2023-02-16T01:38:05.355Z,20.30
2023-02-16T01:40:42.079Z,21.23
2023-02-16T01:43:20.494Z,21.33
2023-02-16T01:45:56.605Z,20.73
2023-02-16T01:48:29.530Z,21.98
2023-02-16T01:51:05.619Z,20.83
2023-02-16T01:53:39.310Z,20.92
2023-02-16T01:56:16.563Z,21.27
2023-02-16T01:58:49.064Z,21.50
2023-02-16T02:01:40.383Z,23.20
2023-02-16T02:04:56.559Z,22.10
2023-02-16T02:07:30.515Z,22.77
2023-02-16T02:10:04.425Z,21.92
2023-02-16T02:12:38.615Z,21.98
2023-02-16T02:15:09.367Z,23.13
2023-02-16T02:17:38.532Z,24.05
2023-02-16T02:20:17.410Z,24.50
2023-02-16T02:23:33.864Z,24.05
2023-02-16T02:26:36.236Z,24.42
2023-02-16T02:29:20.259Z,23.33
2023-02-16T02:31:59.122Z,25.33
2023-02-16T02:34:39.083Z,25.10
2023-02-16T02:37:12.712Z,23.83
2023-02-16T02:39:53.413Z,23.65
2023-02-16T02:42:31.569Z,23.52
2023-02-16T02:45:07.227Z,24.58
2023-02-16T02:47:40.226Z,24.35
2023-02-16T02:50:41.985Z,23.50
2023-02-16T02:53:16.140Z,25.95
2023-02-16T02:56:05.816Z,24.02
2023-02-16T02:59:09.003Z,22.70
2023-02-16T03:01:40.074Z,22.88
2023-02-16T03:04:12.409Z,24.13
2023-02-16T03:06:43.515Z,23.42
2023-02-16T03:09:14.384Z,23.42
2023-02-16T03:12:01.014Z,24.13
2023-02-16T03:14:34.731Z,22.63
2023-02-16T03:17:25.139Z,25.23
2023-02-16T03:20:12.735Z,25.83
2023-02-16T03:22:58.826Z,24.00
2023-02-16T03:25:49.642Z,24.60
2023-02-16T03:28:36.843Z,25.48
2023-02-16T03:31:09.893Z,25.58
2023-02-16T03:33:38.452Z,26.02
2023-02-16T03:36:08.168Z,26.00
2023-02-16T03:38:37.751Z,22.70
2023-02-16T03:41:08.690Z,25.08
2023-02-16T03:43:37.230Z,23.48
2023-02-16T03:46:07.322Z,24.27
2023-02-16T03:48:35.754Z,24.45
2023-02-16T03:51:04.677Z,24.25
2023-02-16T03:53:33.503Z,25.33
2023-02-16T03:56:02.233Z,25.75
2023-02-16T03:58:31.135Z,24.75
2023-02-16T04:00:59.851Z,26.13
2023-02-16T04:03:29.484Z,28.20
2023-02-16T04:05:58.414Z,26.60
2023-02-16T04:08:26.852Z,25.83
2023-02-16T04:10:57.517Z,24.75
2023-02-16T04:13:25.171Z,26.63
2023-02-16T04:15:53.855Z,27.13
2023-02-16T04:18:22.294Z,28.90
2023-02-16T04:20:52.467Z,26.55
2023-02-16T04:23:20.923Z,26.90
2023-02-16T04:25:49.674Z,27.50
2023-02-16T04:28:17.944Z,26.73
2023-02-16T04:30:46.434Z,27.08
2023-02-16T04:33:17.091Z,26.38
2023-02-16T04:35:45.535Z,25.60
2023-02-16T04:38:15.114Z,26.33
2023-02-16T04:40:43.981Z,26.52
2023-02-16T04:43:12.417Z,28.40
2023-02-16T04:45:41.413Z,27.50
2023-02-16T04:48:09.781Z,28.83
2023-02-16T04:50:38.040Z,27.98
2023-02-16T04:53:06.268Z,28.05
2023-02-16T04:55:35.869Z,26.90
2023-02-16T04:58:04.601Z,28.00
2023-02-16T05:00:36.231Z,25.75
2023-02-16T05:03:05.201Z,28.67
2023-02-16T05:05:35.163Z,29.42
2023-02-16T05:08:06.763Z,27.17
2023-02-16T05:10:37.784Z,27.17
2023-02-16T05:13:24.149Z,28.00
2023-02-16T05:15:53.508Z,28.48
2023-02-16T05:18:22.121Z,28.27
2023-02-16T05:21:08.140Z,26.95
2023-02-16T05:23:36.833Z,27.67
2023-02-16T05:26:06.582Z,26.98
2023-02-16T05:28:35.134Z,29.50
2023-02-16T05:31:05.934Z,27.58
2023-02-16T05:33:34.628Z,28.33
2023-02-16T05:36:03.544Z,27.80
2023-02-16T05:38:31.880Z,30.05
2023-02-16T05:41:05.756Z,30.13
2023-02-16T05:43:35.602Z,28.17
2023-02-16T05:46:09.049Z,28.75
2023-02-16T05:48:37.435Z,28.35
2023-02-16T05:51:06.234Z,29.00
2023-02-16T05:53:34.867Z,29.15
2023-02-16T05:56:03.220Z,31.33
2023-02-16T05:58:32.331Z,29.25
2023-02-16T06:01:02.428Z,30.08
2023-02-16T06:03:31.325Z,30.85
2023-02-16T06:06:01.708Z,30.70
2023-02-16T06:08:30.218Z,30.23
2023-02-16T06:10:58.718Z,29.55
2023-02-16T06:13:28.072Z,30.65
2023-02-16T06:15:58.077Z,29.55
2023-02-16T06:18:28.193Z,29.10
2023-02-16T06:20:58.305Z,30.10
2023-02-16T06:23:26.605Z,28.60
2023-02-16T06:25:54.995Z,30.13
2023-02-16T06:28:23.858Z,28.38
2023-02-16T06:30:52.496Z,30.40
2023-02-16T06:33:22.729Z,28.30
2023-02-16T06:35:56.704Z,29.00
2023-02-16T06:38:25.242Z,30.00
2023-02-16T06:40:56.222Z,27.98
2023-02-16T06:43:25.548Z,30.13
2023-02-16T06:45:54.035Z,28.65
2023-02-16T06:48:22.609Z,29.10
2023-02-16T06:50:59.212Z,29.83
2023-02-16T06:53:28.064Z,30.33
2023-02-16T06:55:56.527Z,30.67
2023-02-16T06:58:24.988Z,27.00
2023-02-16T07:00:55.931Z,28.27
2023-02-16T07:03:27.453Z,28.55
2023-02-16T07:05:57.217Z,28.30
2023-02-16T07:08:25.726Z,30.00
2023-02-16T07:10:56.368Z,27.40
2023-02-16T07:13:28.822Z,27.83
2023-02-16T07:15:57.693Z,27.52
2023-02-16T07:18:26.474Z,28.30
2023-02-16T07:20:59.277Z,30.02
2023-02-16T07:23:29.155Z,29.33
2023-02-16T07:25:58.140Z,30.42
2023-02-16T07:28:29.194Z,28.23
2023-02-16T07:30:59.195Z,28.85
2023-02-16T07:33:27.950Z,29.90
2023-02-16T07:35:58.464Z,30.50
2023-02-16T07:38:27.497Z,30.00
2023-02-16T07:40:57.470Z,27.52
2023-02-16T07:43:26.739Z,27.35
2023-02-16T07:45:57.264Z,28.10
2023-02-16T07:48:25.577Z,29.52
2023-02-16T07:50:56.318Z,28.92
2023-02-16T07:53:24.815Z,29.08
2023-02-16T07:55:53.127Z,28.75
2023-02-16T07:58:28.696Z,29.83
2023-02-16T08:00:57.826Z,29.58
2023-02-16T08:03:26.400Z,26.92
2023-02-16T08:05:54.773Z,29.80
2023-02-16T08:08:24.346Z,28.80
2023-02-16T08:10:54.116Z,29.73
2023-02-16T08:13:26.246Z,27.95
2023-02-16T08:15:54.551Z,27.37
2023-02-16T08:18:23.250Z,28.88
2023-02-16T08:21:03.662Z,27.83
2023-02-16T08:23:33.103Z,28.45
2023-02-16T08:26:01.821Z,27.05
2023-02-16T08:28:31.428Z,28.60
2023-02-16T08:31:06.791Z,27.13
2023-02-16T08:33:36.683Z,28.27
2023-02-16T08:36:19.534Z,28.50
2023-02-16T08:38:51.051Z,28.90
2023-02-16T08:41:27.998Z,28.02
2023-02-16T08:43:58.322Z,29.27
2023-02-16T08:46:26.856Z,26.52
2023-02-16T08:49:00.133Z,28.55
2023-02-16T08:51:31.378Z,27.98
2023-02-16T08:54:04.278Z,27.02
2023-02-16T08:56:34.622Z,27.02
2023-02-16T08:59:08.419Z,27.83
2023-02-16T09:01:37.347Z,28.77
2023-02-16T09:04:06.000Z,29.55
2023-02-16T09:06:34.823Z,28.00
2023-02-16T09:09:05.041Z,26.98
2023-02-16T09:11:37.411Z,26.10
2023-02-16T09:14:09.380Z,28.08
2023-02-16T09:16:45.565Z,29.57
2023-02-16T09:19:16.566Z,27.70
2023-02-16T09:21:46.983Z,28.30
2023-02-16T09:24:31.025Z,27.90
2023-02-16T09:27:01.024Z,28.13
2023-02-16T09:29:30.634Z,27.80
2023-02-16T09:31:59.283Z,28.77
2023-02-16T09:34:28.045Z,29.25
2023-02-16T09:36:56.570Z,29.75
2023-02-16T09:39:27.317Z,28.92
2023-02-16T09:42:10.236Z,29.35
2023-02-16T09:44:49.693Z,27.10
2023-02-16T09:47:25.439Z,25.63
2023-02-16T09:49:57.189Z,26.23
2023-02-16T09:52:34.254Z,26.38
2023-02-16T09:55:06.986Z,25.05
2023-02-16T09:57:44.574Z,24.02
2023-02-16T10:00:44.983Z,22.25
2023-02-16T10:03:26.914Z,22.13
2023-02-16T10:06:06.458Z,26.17
2023-02-16T10:08:40.566Z,25.83
2023-02-16T10:11:28.737Z,24.98
2023-02-16T10:14:01.406Z,23.42
2023-02-16T10:16:37.495Z,22.52
2023-02-16T10:19:16.630Z,23.60
2023-02-16T10:21:48.593Z,23.45
2023-02-16T10:24:17.020Z,23.20
2023-02-16T10:26:49.493Z,21.77
2023-02-16T10:29:22.242Z,21.13
2023-02-16T10:32:00.774Z,22.85
2023-02-16T10:34:41.525Z,21.35
2023-02-16T10:37:25.065Z,20.63
2023-02-16T10:40:00.598Z,21.52
2023-02-16T10:42:41.922Z,20.98
2023-02-16T10:45:24.777Z,20.23
2023-02-16T10:47:55.819Z,19.10
2023-02-16T10:50:28.696Z,20.10
2023-02-16T10:52:59.910Z,18.50
2023-02-16T10:55:28.894Z,18.20
2023-02-16T10:58:01.018Z,19.90
2023-02-16T11:00:44.429Z,18.37
2023-02-16T11:05:47.805Z,18.15
2023-02-16T11:08:16.279Z,17.63
2023-02-16T11:10:48.858Z,18.08
2023-02-16T11:13:28.441Z,17.17
2023-02-16T11:16:00.013Z,18.13
2023-02-16T11:18:45.364Z,17.67
2023-02-16T11:21:14.459Z,13.80
2023-02-16T11:23:47.214Z,16.08
2023-02-16T11:26:28.867Z,16.33
2023-02-16T11:29:14.532Z,16.00
2023-02-16T11:31:43.392Z,16.30
2023-02-16T11:34:23.076Z,16.33
2023-02-16T11:36:51.688Z,15.90
2023-02-16T11:39:24.540Z,15.60
2023-02-16T11:41:55.241Z,15.27
2023-02-16T11:44:29.119Z,14.80
2023-02-16T11:46:58.488Z,14.82
2023-02-16T11:49:35.290Z,14.20
2023-02-16T11:52:22.519Z,14.02
2023-02-16T11:54:51.879Z,10.55
2023-02-16T11:57:27.034Z,10.38
2023-02-16T11:59:55.998Z,8.90
2023-02-16T12:02:52.123Z,10.02
2023-02-16T12:05:28.428Z,9.27
2023-02-16T12:08:15.257Z,9.82
2023-02-16T12:10:52.892Z,9.60
2023-02-16T12:13:30.173Z,9.77
2023-02-16T12:16:08.270Z,9.93
2023-02-16T12:18:44.294Z,8.63
2023-02-16T12:21:22.394Z,9.40
2023-02-16T12:24:00.546Z,8.70
2023-02-16T12:26:39.446Z,8.13
2023-02-16T12:29:21.613Z,9.18
2023-02-16T12:32:03.738Z,7.90
2023-02-16T12:34:48.505Z,9.05
2023-02-16T12:37:28.975Z,8.65
2023-02-16T12:40:05.067Z,8.93
2023-02-16T12:42:51.187Z,9.48
2023-02-16T12:45:22.262Z,9.18
2023-02-16T12:47:58.075Z,10.10
2023-02-16T12:50:28.611Z,9.18
2023-02-16T12:53:04.732Z,8.63
2023-02-16T12:55:38.233Z,9.18
2023-02-16T12:58:17.372Z,9.20
2023-02-16T13:00:49.558Z,8.35
2023-02-16T13:03:30.673Z,8.02
2023-02-16T13:06:13.304Z,7.13
2023-02-16T13:08:52.366Z,7.15
2023-02-16T13:11:31.206Z,7.35
2023-02-16T13:14:02.570Z,7.18
2023-02-16T13:16:42.365Z,6.85
2023-02-16T13:19:13.893Z,7.22
2023-02-16T13:22:10.684Z,7.20
2023-02-16T13:24:52.384Z,7.63
2023-02-16T13:27:34.472Z,6.93
2023-02-16T13:30:33.777Z,7.85
2023-02-16T13:33:24.632Z,8.27
2023-02-16T13:36:25.304Z,7.18
2023-02-16T13:39:28.621Z,7.20
2023-02-16T13:42:23.401Z,7.43
2023-02-16T13:44:54.789Z,7.93
2023-02-16T13:47:28.130Z,7.28
2023-02-16T13:50:01.181Z,7.20
2023-02-16T13:55:01.677Z,6.63
2023-02-16T13:57:58.305Z,6.32
2023-02-16T14:00:32.621Z,6.15
2023-02-16T14:03:04.255Z,7.63
2023-02-16T14:05:36.862Z,6.53
2023-02-16T14:08:24.280Z,7.13
2023-02-16T14:11:14.693Z,7.78
2023-02-16T14:13:53.379Z,7.78
2023-02-16T14:16:35.364Z,7.40
2023-02-16T14:19:06.943Z,8.25
2023-02-16T14:21:41.642Z,7.78
2023-02-16T14:24:15.073Z,7.72
2023-02-16T14:27:02.011Z,8.30
2023-02-16T14:29:37.828Z,8.20
2023-02-16T14:32:17.515Z,7.85
2023-02-16T14:34:52.946Z,8.07
2023-02-16T14:37:38.719Z,7.80
2023-02-16T14:40:16.341Z,7.63
2023-02-16T14:42:59.505Z,8.43
2023-02-16T14:46:11.230Z,8.27
2023-02-16T14:49:06.580Z,8.13
2023-02-16T14:52:00.763Z,9.48
2023-02-16T14:54:55.007Z,9.75
2023-02-16T14:57:31.170Z,8.98
2023-02-16T15:00:04.365Z,9.25
2023-02-16T15:02:35.962Z,9.20
2023-02-16T15:05:18.811Z,8.57
2023-02-16T15:07:50.360Z,8.50
2023-02-16T15:10:26.975Z,8.63
2023-02-16T15:12:57.772Z,8.77
2023-02-16T15:15:31.626Z,8.25
2023-02-16T15:18:02.438Z,8.88
2023-02-16T15:20:34.230Z,8.93
2023-02-16T15:23:06.553Z,8.25
2023-02-16T15:25:39.481Z,9.07
2023-02-16T15:28:22.829Z,8.20
2023-02-16T15:33:34.585Z,8.25
2023-02-16T15:36:07.680Z,8.07
2023-02-16T15:41:07.172Z,10.20
2023-02-16T15:43:40.247Z,11.65
2023-02-16T15:48:46.148Z,12.00
2023-02-16T15:51:19.166Z,10.95
2023-02-16T15:56:29.478Z,9.02
2023-02-16T15:59:02.399Z,9.65
2023-02-16T16:01:37.466Z,11.85
2023-02-16T16:04:18.677Z,10.52
2023-02-16T16:06:48.929Z,15.50
2023-02-16T16:09:23.790Z,17.58
2023-02-16T16:11:53.045Z,14.23
2023-02-16T16:14:22.886Z,15.85
2023-02-16T16:16:52.856Z,20.20
2023-02-16T16:19:26.453Z,17.50
2023-02-16T16:21:56.305Z,14.75
2023-02-16T16:24:35.294Z,15.65
2023-02-16T16:27:07.606Z,18.95
2023-02-16T16:29:44.394Z,18.50
2023-02-16T16:32:21.229Z,18.17
2023-02-16T16:34:51.672Z,22.00
2023-02-16T16:37:26.916Z,18.58
2023-02-16T16:40:05.732Z,18.55
2023-02-16T16:42:34.843Z,20.05
2023-02-16T16:45:07.586Z,18.52
2023-02-16T16:47:39.866Z,19.42
2023-02-16T16:50:33.969Z,19.63
2023-02-16T16:53:02.910Z,22.98
2023-02-16T16:55:35.473Z,28.15
2023-02-16T16:58:07.954Z,28.75
2023-02-16T17:00:38.604Z,33.50
2023-02-16T17:03:08.233Z,32.63
2023-02-16T17:05:40.218Z,32.25
2023-02-16T17:08:08.924Z,33.42
2023-02-16T17:10:38.862Z,25.42
2023-02-16T17:13:07.356Z,29.52
2023-02-16T17:15:40.688Z,27.17
2023-02-16T17:18:09.129Z,32.25
2023-02-16T17:20:38.371Z,31.20
2023-02-16T17:23:06.698Z,31.20
2023-02-16T17:25:36.644Z,32.13
2023-02-16T17:28:05.294Z,31.50
2023-02-16T17:30:33.846Z,31.08
2023-02-16T17:33:02.243Z,31.60
2023-02-16T17:35:31.634Z,32.15
2023-02-16T17:38:08.269Z,31.35
2023-02-16T17:40:37.021Z,31.17
2023-02-16T17:43:12.486Z,24.10
2023-02-16T17:45:41.002Z,20.23
2023-02-16T17:48:09.645Z,16.67
2023-02-16T17:50:38.058Z,16.02
2023-02-16T17:53:13.038Z,14.82
2023-02-16T17:55:41.902Z,14.18
2023-02-16T17:58:10.159Z,12.50
2023-02-16T18:00:39.170Z,12.18
2023-02-16T18:03:07.891Z,10.02
2023-02-16T18:05:36.609Z,10.30
2023-02-16T18:08:05.707Z,10.00
2023-02-16T18:10:38.310Z,9.32
2023-02-16T18:13:06.812Z,11.07
2023-02-16T18:15:35.245Z,9.35
2023-02-16T18:18:03.880Z,8.57
2023-02-16T18:20:32.435Z,9.43
2023-02-16T18:23:01.003Z,8.43
2023-02-16T18:25:30.216Z,8.48
2023-02-16T18:28:00.437Z,8.55
2023-02-16T18:30:29.328Z,9.60
2023-02-16T18:32:58.021Z,11.50
2023-02-16T18:35:26.362Z,12.18
2023-02-16T18:37:57.527Z,12.27
2023-02-16T18:40:26.053Z,12.80
2023-02-16T18:42:54.356Z,11.32
2023-02-16T18:45:23.667Z,10.82
2023-02-16T18:47:52.126Z,10.50
2023-02-16T18:50:20.496Z,9.52
2023-02-16T18:52:48.871Z,10.85
2023-02-16T18:55:17.178Z,10.25
2023-02-16T18:57:45.765Z,10.50
2023-02-16T19:00:15.379Z,12.50
2023-02-16T19:02:44.852Z,14.63
2023-02-16T19:05:13.737Z,14.02
2023-02-16T19:07:42.151Z,13.75
2023-02-16T19:10:12.248Z,13.20
2023-02-16T19:12:40.791Z,10.70
2023-02-16T19:15:09.822Z,11.10
2023-02-16T19:17:39.026Z,11.65
2023-02-16T19:20:13.219Z,11.30
2023-02-16T19:22:41.538Z,11.57
2023-02-16T19:25:10.175Z,12.13
2023-02-16T19:27:39.129Z,12.57
2023-02-16T19:30:08.354Z,17.27
2023-02-16T19:32:36.976Z,17.00
2023-02-16T19:35:05.529Z,16.75
2023-02-16T19:37:35.502Z,21.35
2023-02-16T19:40:04.430Z,16.58
2023-02-16T19:42:33.218Z,16.35
2023-02-16T19:45:01.577Z,13.73
2023-02-16T19:47:30.161Z,13.13
2023-02-16T19:49:58.643Z,11.95
2023-02-16T19:52:27.085Z,12.05
2023-02-16T19:54:56.464Z,11.35
2023-02-16T19:57:25.766Z,10.98
2023-02-16T19:59:54.211Z,10.10
2023-02-16T20:02:22.911Z,10.70
2023-02-16T20:04:51.296Z,10.73
2023-02-16T20:07:19.584Z,9.75
2023-02-16T20:09:47.882Z,9.98
2023-02-16T20:12:17.252Z,11.60
2023-02-16T20:14:46.047Z,12.38
2023-02-16T20:17:14.657Z,12.43
2023-02-16T20:19:43.243Z,10.85
2023-02-16T20:22:11.820Z,12.32
2023-02-16T20:24:40.375Z,12.57
2023-02-16T20:27:08.849Z,12.95
2023-02-16T20:29:38.541Z,11.35
2023-02-16T20:32:07.248Z,11.30
2023-02-16T20:34:35.784Z,10.38
2023-02-16T20:37:04.421Z,10.75
2023-02-16T20:39:32.913Z,11.25
2023-02-16T20:42:01.574Z,11.15
2023-02-16T20:44:30.251Z,10.27
2023-02-16T20:46:59.901Z,10.82
2023-02-16T20:49:28.503Z,11.65
2023-02-16T20:51:56.776Z,9.95
2023-02-16T20:54:25.499Z,9.25
2023-02-16T20:56:55.100Z,9.65
2023-02-16T20:59:23.579Z,10.25
2023-02-16T21:01:52.862Z,9.35
2023-02-16T21:04:22.773Z,9.90
2023-02-16T21:06:51.602Z,10.40
2023-02-16T21:09:19.867Z,10.70
2023-02-16T21:11:49.012Z,10.13
2023-02-16T21:14:17.388Z,8.90
2023-02-16T21:16:46.664Z,10.10
2023-02-16T21:19:22.787Z,10.32
2023-02-16T21:21:53.330Z,12.13
2023-02-16T21:24:21.794Z,10.90
2023-02-16T21:26:50.437Z,12.05
2023-02-16T21:29:18.930Z,10.98
2023-02-16T21:31:47.735Z,10.75
2023-02-16T21:34:16.199Z,10.98
2023-02-16T21:36:44.725Z,10.30
2023-02-16T21:39:14.776Z,10.27
2023-02-16T21:41:42.166Z,10.93
2023-02-16T21:44:12.622Z,10.07
2023-02-16T21:46:42.461Z,11.20
2023-02-16T21:49:14.525Z,10.63
2023-02-16T21:51:44.718Z,10.15
2023-02-16T21:54:16.842Z,9.95
2023-02-16T21:56:45.537Z,10.13
2023-02-16T21:59:19.011Z,10.13
2023-02-16T22:01:53.049Z,11.13
2023-02-16T22:04:23.831Z,9.45
2023-02-16T22:06:52.742Z,8.98
2023-02-16T22:09:24.508Z,9.60
2023-02-16T22:11:53.904Z,8.82
2023-02-16T22:14:22.749Z,8.38
2023-02-16T22:16:51.851Z,8.45
2023-02-16T22:19:22.907Z,8.30
2023-02-16T22:21:51.586Z,8.32
2023-02-16T22:24:22.025Z,8.18
2023-02-16T22:26:51.286Z,8.38
2023-02-16T22:29:20.086Z,7.95
2023-02-16T22:31:50.470Z,8.75
2023-02-16T22:34:21.125Z,8.00
2023-02-16T22:36:50.038Z,8.68
2023-02-16T22:39:21.684Z,8.13
2023-02-16T22:41:50.764Z,8.32
2023-02-16T22:44:19.450Z,7.70
2023-02-16T22:46:48.076Z,7.70
2023-02-16T22:49:16.523Z,8.88
2023-02-16T22:51:45.105Z,7.82
2023-02-16T22:54:15.422Z,8.40
2023-02-16T22:56:45.667Z,7.72
2023-02-16T22:59:16.485Z,7.60
2023-02-16T23:01:45.519Z,8.02
2023-02-16T23:04:16.924Z,7.93
2023-02-16T23:06:47.209Z,7.93
2023-02-16T23:09:18.632Z,7.72
2023-02-16T23:11:49.428Z,8.38
2023-02-16T23:14:18.079Z,8.45
2023-02-16T23:16:48.257Z,8.57
2023-02-16T23:19:18.684Z,8.50
2023-02-16T23:21:48.026Z,8.63
2023-02-16T23:24:18.903Z,8.77
2023-02-16T23:26:49.435Z,8.38
2023-02-16T23:29:18.864Z,10.10
2023-02-16T23:31:49.334Z,10.15
2023-02-16T23:34:21.512Z,9.18
2023-02-16T23:36:50.235Z,8.73
2023-02-16T23:39:20.322Z,8.80
2023-02-16T23:41:49.878Z,8.13
2023-02-16T23:44:18.542Z,7.40
2023-02-16T23:46:47.399Z,6.32
2023-02-16T23:49:16.082Z,5.68
2023-02-16T23:51:45.066Z,5.25
2023-02-16T23:54:14.268Z,5.53
2023-02-16T23:56:42.604Z,5.40
2023-02-16T23:59:11.902Z,5.40
